sensor_id;sensor_type;location;lat;lon;timestamp;P1;durP1;ratioP1;P2;durP2;ratioP2
48006;SDS011;33771;48.180;11.400;2023-05-14T00:01:48;20.75;;;15.23;;
48006;SDS011;33771;48.180;11.400;2023-05-14T00:04:15;18.13;;;14.15;;
48006;SDS011;33771;48.180;11.400;2023-05-14T00:06:43;18.37;;;14.30;;
48006;SDS011;33771;48.180;11.400;2023-05-14T00:09:09;23.47;;;14.60;;
48006;SDS011;33771;48.180;11.400;2023-05-14T00:11:35;19.93;;;15.20;;
48006;SDS011;33771;48.180;11.400;2023-05-14T00:14:01;19.63;;;14.98;;
48006;SDS011;33771;48.180;11.400;2023-05-14T00:16:26;19.63;;;15.43;;
48006;SDS011;33771;48.180;11.400;2023-05-14T00:18:52;19.20;;;16.50;;
48006;SDS011;33771;48.180;11.400;2023-05-14T00:21:17;21.50;;;16.65;;
48006;SDS011;33771;48.180;11.400;2023-05-14T00:23:43;20.47;;;15.73;;
48006;SDS011;33771;48.180;11.400;2023-05-14T00:26:08;17.77;;;14.20;;
48006;SDS011;33771;48.180;11.400;2023-05-14T00:28:34;20.75;;;16.55;;
48006;SDS011;33771;48.180;11.400;2023-05-14T00:30:59;21.10;;;16.10;;
48006;SDS011;33771;48.180;11.400;2023-05-14T00:33:25;23.83;;;16.50;;
48006;SDS011;33771;48.180;11.400;2023-05-14T00:35:50;19.33;;;15.57;;
48006;SDS011;33771;48.180;11.400;2023-05-14T00:38:16;22.33;;;16.63;;
48006;SDS011;33771;48.180;11.400;2023-05-14T00:40:43;21.33;;;16.60;;
48006;SDS011;33771;48.180;11.400;2023-05-14T00:43:13;21.80;;;15.93;;
48006;SDS011;33771;48.180;11.400;2023-05-14T00:45:39;19.83;;;16.10;;
48006;SDS011;33771;48.180;11.400;2023-05-14T00:48:05;21.20;;;15.33;;
48006;SDS011;33771;48.180;11.400;2023-05-14T00:50:31;18.53;;;14.97;;
48006;SDS011;33771;48.180;11.400;2023-05-14T00:52:58;21.15;;;14.82;;
48006;SDS011;33771;48.180;11.400;2023-05-14T00:55:24;19.10;;;14.27;;
48006;SDS011;33771;48.180;11.400;2023-05-14T00:57:50;20.53;;;15.50;;
48006;SDS011;33771;48.180;11.400;2023-05-14T01:00:18;18.60;;;15.10;;
48006;SDS011;33771;48.180;11.400;2023-05-14T01:02:44;21.43;;;16.03;;
48006;SDS011;33771;48.180;11.400;2023-05-14T01:05:10;19.50;;;15.63;;
48006;SDS011;33771;48.180;11.400;2023-05-14T01:07:53;19.37;;;15.70;;
48006;SDS011;33771;48.180;11.400;2023-05-14T01:10:28;18.23;;;15.10;;
48006;SDS011;33771;48.180;11.400;2023-05-14T01:13:08;20.60;;;14.67;;
48006;SDS011;33771;48.180;11.400;2023-05-14T01:15:56;19.27;;;14.93;;
48006;SDS011;33771;48.180;11.400;2023-05-14T01:18:23;20.83;;;15.17;;
48006;SDS011;33771;48.180;11.400;2023-05-14T01:20:51;20.57;;;14.87;;
48006;SDS011;33771;48.180;11.400;2023-05-14T01:23:18;20.77;;;15.63;;
48006;SDS011;33771;48.180;11.400;2023-05-14T01:25:44;20.67;;;14.97;;
48006;SDS011;33771;48.180;11.400;2023-05-14T01:33:15;21.03;;;16.03;;
48006;SDS011;33771;48.180;11.400;2023-05-14T01:35:42;20.80;;;15.70;;
48006;SDS011;33771;48.180;11.400;2023-05-14T01:38:12;21.97;;;15.83;;
48006;SDS011;33771;48.180;11.400;2023-05-14T01:40:41;22.87;;;16.97;;
48006;SDS011;33771;48.180;11.400;2023-05-14T01:43:08;23.83;;;17.50;;
48006;SDS011;33771;48.180;11.400;2023-05-14T01:45:35;21.47;;;16.77;;
48006;SDS011;33771;48.180;11.400;2023-05-14T01:48:01;22.17;;;16.23;;
48006;SDS011;33771;48.180;11.400;2023-05-14T01:50:26;22.53;;;17.17;;
48006;SDS011;33771;48.180;11.400;2023-05-14T01:52:52;23.07;;;17.43;;
48006;SDS011;33771;48.180;11.400;2023-05-14T01:55:20;21.70;;;16.80;;
48006;SDS011;33771;48.180;11.400;2023-05-14T01:57:52;26.03;;;18.97;;
48006;SDS011;33771;48.180;11.400;2023-05-14T02:00:18;27.27;;;20.13;;
48006;SDS011;33771;48.180;11.400;2023-05-14T02:02:44;25.60;;;19.70;;
48006;SDS011;33771;48.180;11.400;2023-05-14T02:05:10;26.83;;;20.10;;
48006;SDS011;33771;48.180;11.400;2023-05-14T02:07:36;27.90;;;18.83;;
48006;SDS011;33771;48.180;11.400;2023-05-14T02:10:02;26.23;;;19.07;;
48006;SDS011;33771;48.180;11.400;2023-05-14T02:12:28;23.83;;;18.60;;
48006;SDS011;33771;48.180;11.400;2023-05-14T02:14:53;24.20;;;18.47;;
48006;SDS011;33771;48.180;11.400;2023-05-14T02:17:19;30.97;;;19.87;;
48006;SDS011;33771;48.180;11.400;2023-05-14T02:19:44;26.60;;;19.50;;
48006;SDS011;33771;48.180;11.400;2023-05-14T02:22:10;24.70;;;19.80;;
48006;SDS011;33771;48.180;11.400;2023-05-14T02:24:36;23.17;;;17.90;;
48006;SDS011;33771;48.180;11.400;2023-05-14T02:27:02;24.87;;;18.07;;
48006;SDS011;33771;48.180;11.400;2023-05-14T02:29:27;23.57;;;17.03;;
48006;SDS011;33771;48.180;11.400;2023-05-14T02:31:53;22.37;;;16.70;;
48006;SDS011;33771;48.180;11.400;2023-05-14T02:34:18;22.53;;;16.37;;
48006;SDS011;33771;48.180;11.400;2023-05-14T02:36:44;28.07;;;18.20;;
48006;SDS011;33771;48.180;11.400;2023-05-14T02:39:09;24.47;;;18.70;;
48006;SDS011;33771;48.180;11.400;2023-05-14T02:41:35;25.13;;;17.23;;
48006;SDS011;33771;48.180;11.400;2023-05-14T02:44:00;25.93;;;18.67;;
48006;SDS011;33771;48.180;11.400;2023-05-14T02:46:26;24.53;;;17.90;;
48006;SDS011;33771;48.180;11.400;2023-05-14T02:48:51;22.00;;;17.97;;
48006;SDS011;33771;48.180;11.400;2023-05-14T02:51:18;24.63;;;17.93;;
48006;SDS011;33771;48.180;11.400;2023-05-14T02:53:45;24.93;;;19.07;;
48006;SDS011;33771;48.180;11.400;2023-05-14T02:56:11;24.30;;;18.10;;
48006;SDS011;33771;48.180;11.400;2023-05-14T02:58:36;23.17;;;18.30;;
48006;SDS011;33771;48.180;11.400;2023-05-14T03:01:02;25.47;;;18.67;;
48006;SDS011;33771;48.180;11.400;2023-05-14T03:03:28;27.33;;;19.57;;
48006;SDS011;33771;48.180;11.400;2023-05-14T03:05:54;26.63;;;19.00;;
48006;SDS011;33771;48.180;11.400;2023-05-14T03:08:19;24.63;;;18.70;;
48006;SDS011;33771;48.180;11.400;2023-05-14T03:10:45;26.27;;;19.03;;
48006;SDS011;33771;48.180;11.400;2023-05-14T03:13:10;24.57;;;18.53;;
48006;SDS011;33771;48.180;11.400;2023-05-14T03:15:36;23.50;;;18.50;;
48006;SDS011;33771;48.180;11.400;2023-05-14T03:18:01;24.47;;;18.47;;
48006;SDS011;33771;48.180;11.400;2023-05-14T03:20:27;25.37;;;19.57;;
48006;SDS011;33771;48.180;11.400;2023-05-14T03:22:52;25.07;;;18.63;;
48006;SDS011;33771;48.180;11.400;2023-05-14T03:25:18;24.77;;;19.27;;
48006;SDS011;33771;48.180;11.400;2023-05-14T03:27:44;25.97;;;19.00;;
48006;SDS011;33771;48.180;11.400;2023-05-14T03:30:10;26.30;;;17.97;;
48006;SDS011;33771;48.180;11.400;2023-05-14T03:32:36;24.67;;;18.60;;
48006;SDS011;33771;48.180;11.400;2023-05-14T03:35:02;26.40;;;18.30;;
48006;SDS011;33771;48.180;11.400;2023-05-14T03:37:27;23.80;;;18.17;;
48006;SDS011;33771;48.180;11.400;2023-05-14T03:39:53;26.17;;;18.60;;
48006;SDS011;33771;48.180;11.400;2023-05-14T03:42:18;26.50;;;18.97;;
48006;SDS011;33771;48.180;11.400;2023-05-14T03:44:44;23.40;;;17.60;;
48006;SDS011;33771;48.180;11.400;2023-05-14T03:47:09;26.90;;;17.10;;
48006;SDS011;33771;48.180;11.400;2023-05-14T03:49:35;25.20;;;19.10;;
48006;SDS011;33771;48.180;11.400;2023-05-14T03:52:01;23.37;;;17.13;;
48006;SDS011;33771;48.180;11.400;2023-05-14T03:54:26;23.03;;;16.87;;
48006;SDS011;33771;48.180;11.400;2023-05-14T03:56:52;24.73;;;17.23;;
48006;SDS011;33771;48.180;11.400;2023-05-14T03:59:17;22.10;;;16.23;;
48006;SDS011;33771;48.180;11.400;2023-05-14T04:01:43;22.90;;;17.60;;
48006;SDS011;33771;48.180;11.400;2023-05-14T04:04:08;22.50;;;16.57;;
48006;SDS011;33771;48.180;11.400;2023-05-14T04:06:34;25.27;;;17.20;;
48006;SDS011;33771;48.180;11.400;2023-05-14T04:09:00;22.73;;;17.50;;
48006;SDS011;33771;48.180;11.400;2023-05-14T04:11:25;22.40;;;16.57;;
48006;SDS011;33771;48.180;11.400;2023-05-14T04:13:51;23.47;;;17.50;;
48006;SDS011;33771;48.180;11.400;2023-05-14T04:16:16;24.33;;;16.73;;
48006;SDS011;33771;48.180;11.400;2023-05-14T04:18:42;26.20;;;17.37;;
48006;SDS011;33771;48.180;11.400;2023-05-14T04:21:07;24.47;;;17.77;;
48006;SDS011;33771;48.180;11.400;2023-05-14T04:23:33;28.23;;;17.90;;
48006;SDS011;33771;48.180;11.400;2023-05-14T04:25:58;26.00;;;17.20;;
48006;SDS011;33771;48.180;11.400;2023-05-14T04:28:24;25.03;;;17.33;;
48006;SDS011;33771;48.180;11.400;2023-05-14T04:30:49;28.37;;;17.43;;
48006;SDS011;33771;48.180;11.400;2023-05-14T04:33:15;27.47;;;20.27;;
48006;SDS011;33771;48.180;11.400;2023-05-14T04:35:41;25.17;;;17.63;;
48006;SDS011;33771;48.180;11.400;2023-05-14T04:38:07;30.17;;;18.80;;
48006;SDS011;33771;48.180;11.400;2023-05-14T04:40:33;28.50;;;18.80;;
48006;SDS011;33771;48.180;11.400;2023-05-14T04:42:59;27.90;;;17.73;;
48006;SDS011;33771;48.180;11.400;2023-05-14T04:45:24;27.97;;;19.97;;
48006;SDS011;33771;48.180;11.400;2023-05-14T04:47:50;29.90;;;19.77;;
48006;SDS011;33771;48.180;11.400;2023-05-14T04:50:16;31.90;;;18.97;;
48006;SDS011;33771;48.180;11.400;2023-05-14T04:52:41;28.73;;;19.60;;
48006;SDS011;33771;48.180;11.400;2023-05-14T04:55:07;26.60;;;19.47;;
48006;SDS011;33771;48.180;11.400;2023-05-14T04:57:33;28.47;;;19.90;;
48006;SDS011;33771;48.180;11.400;2023-05-14T04:59:58;30.53;;;22.30;;
48006;SDS011;33771;48.180;11.400;2023-05-14T05:02:24;27.50;;;19.40;;
48006;SDS011;33771;48.180;11.400;2023-05-14T05:04:50;30.17;;;19.10;;
48006;SDS011;33771;48.180;11.400;2023-05-14T05:07:15;23.90;;;17.20;;
48006;SDS011;33771;48.180;11.400;2023-05-14T05:09:41;28.60;;;18.50;;
48006;SDS011;33771;48.180;11.400;2023-05-14T05:12:07;26.03;;;18.37;;
48006;SDS011;33771;48.180;11.400;2023-05-14T05:14:33;28.77;;;20.47;;
48006;SDS011;33771;48.180;11.400;2023-05-14T05:16:58;29.33;;;19.23;;
48006;SDS011;33771;48.180;11.400;2023-05-14T05:19:24;27.87;;;18.87;;
48006;SDS011;33771;48.180;11.400;2023-05-14T05:21:49;30.83;;;20.70;;
48006;SDS011;33771;48.180;11.400;2023-05-14T05:24:15;27.87;;;19.30;;
48006;SDS011;33771;48.180;11.400;2023-05-14T05:26:40;28.63;;;19.33;;
48006;SDS011;33771;48.180;11.400;2023-05-14T05:29:06;30.37;;;19.43;;
48006;SDS011;33771;48.180;11.400;2023-05-14T05:31:32;30.97;;;20.30;;
48006;SDS011;33771;48.180;11.400;2023-05-14T05:33:58;32.23;;;19.53;;
48006;SDS011;33771;48.180;11.400;2023-05-14T05:36:24;32.77;;;20.50;;
48006;SDS011;33771;48.180;11.400;2023-05-14T05:38:49;31.73;;;19.87;;
48006;SDS011;33771;48.180;11.400;2023-05-14T05:41:15;32.67;;;20.50;;
48006;SDS011;33771;48.180;11.400;2023-05-14T05:43:41;27.93;;;19.10;;
48006;SDS011;33771;48.180;11.400;2023-05-14T05:46:06;33.30;;;21.20;;
48006;SDS011;33771;48.180;11.400;2023-05-14T05:48:32;32.67;;;20.30;;
48006;SDS011;33771;48.180;11.400;2023-05-14T05:50:57;33.53;;;21.43;;
48006;SDS011;33771;48.180;11.400;2023-05-14T05:53:23;38.13;;;22.90;;
48006;SDS011;33771;48.180;11.400;2023-05-14T05:55:48;33.73;;;20.80;;
48006;SDS011;33771;48.180;11.400;2023-05-14T05:58:15;31.33;;;20.00;;
48006;SDS011;33771;48.180;11.400;2023-05-14T06:00:44;35.73;;;23.23;;
48006;SDS011;33771;48.180;11.400;2023-05-14T06:03:11;30.47;;;21.30;;
48006;SDS011;33771;48.180;11.400;2023-05-14T06:05:37;31.60;;;20.53;;
48006;SDS011;33771;48.180;11.400;2023-05-14T06:08:03;33.13;;;22.17;;
48006;SDS011;33771;48.180;11.400;2023-05-14T06:10:28;35.70;;;22.77;;
48006;SDS011;33771;48.180;11.400;2023-05-14T06:12:54;35.57;;;21.03;;
48006;SDS011;33771;48.180;11.400;2023-05-14T06:15:19;37.17;;;22.43;;
48006;SDS011;33771;48.180;11.400;2023-05-14T06:17:45;35.63;;;21.80;;
48006;SDS011;33771;48.180;11.400;2023-05-14T06:20:10;32.70;;;22.23;;
48006;SDS011;33771;48.180;11.400;2023-05-14T06:22:36;32.27;;;21.67;;
48006;SDS011;33771;48.180;11.400;2023-05-14T06:25:02;34.73;;;22.07;;
48006;SDS011;33771;48.180;11.400;2023-05-14T06:27:28;28.67;;;20.37;;
48006;SDS011;33771;48.180;11.400;2023-05-14T06:29:54;31.73;;;21.13;;
48006;SDS011;33771;48.180;11.400;2023-05-14T06:32:19;34.97;;;22.10;;
48006;SDS011;33771;48.180;11.400;2023-05-14T06:34:45;37.67;;;20.80;;
48006;SDS011;33771;48.180;11.400;2023-05-14T06:37:11;32.00;;;20.70;;
48006;SDS011;33771;48.180;11.400;2023-05-14T06:39:36;34.97;;;21.27;;
48006;SDS011;33771;48.180;11.400;2023-05-14T06:42:03;33.43;;;20.70;;
48006;SDS011;33771;48.180;11.400;2023-05-14T06:44:29;35.73;;;21.30;;
48006;SDS011;33771;48.180;11.400;2023-05-14T06:46:54;31.60;;;20.47;;
48006;SDS011;33771;48.180;11.400;2023-05-14T06:49:21;37.20;;;21.30;;
48006;SDS011;33771;48.180;11.400;2023-05-14T06:51:46;35.30;;;19.97;;
48006;SDS011;33771;48.180;11.400;2023-05-14T06:54:12;32.30;;;20.23;;
48006;SDS011;33771;48.180;11.400;2023-05-14T06:56:37;34.07;;;20.80;;
48006;SDS011;33771;48.180;11.400;2023-05-14T06:59:03;32.20;;;21.03;;
48006;SDS011;33771;48.180;11.400;2023-05-14T07:01:28;31.60;;;20.97;;
48006;SDS011;33771;48.180;11.400;2023-05-14T07:03:54;82.87;;;55.63;;
48006;SDS011;33771;48.180;11.400;2023-05-14T07:06:20;45.77;;;31.47;;
48006;SDS011;33771;48.180;11.400;2023-05-14T07:08:46;32.83;;;19.43;;
48006;SDS011;33771;48.180;11.400;2023-05-14T07:11:12;29.60;;;19.53;;
48006;SDS011;33771;48.180;11.400;2023-05-14T07:13:38;27.60;;;18.37;;
48006;SDS011;33771;48.180;11.400;2023-05-14T07:16:04;25.20;;;18.67;;
48006;SDS011;33771;48.180;11.400;2023-05-14T07:18:30;26.85;;;18.58;;
48006;SDS011;33771;48.180;11.400;2023-05-14T07:20:55;28.07;;;17.80;;
48006;SDS011;33771;48.180;11.400;2023-05-14T07:23:21;28.10;;;17.77;;
48006;SDS011;33771;48.180;11.400;2023-05-14T07:25:46;26.37;;;18.37;;
48006;SDS011;33771;48.180;11.400;2023-05-14T07:28:12;28.75;;;19.27;;
48006;SDS011;33771;48.180;11.400;2023-05-14T07:30:38;29.67;;;20.33;;
48006;SDS011;33771;48.180;11.400;2023-05-14T07:33:03;33.47;;;18.70;;
48006;SDS011;33771;48.180;11.400;2023-05-14T07:35:29;29.27;;;19.03;;
48006;SDS011;33771;48.180;11.400;2023-05-14T07:37:54;28.87;;;17.87;;
48006;SDS011;33771;48.180;11.400;2023-05-14T07:40:20;28.27;;;20.70;;
48006;SDS011;33771;48.180;11.400;2023-05-14T07:42:46;29.80;;;19.30;;
48006;SDS011;33771;48.180;11.400;2023-05-14T07:45:11;27.87;;;18.83;;
48006;SDS011;33771;48.180;11.400;2023-05-14T07:47:37;29.73;;;19.90;;
48006;SDS011;33771;48.180;11.400;2023-05-14T07:50:04;31.73;;;18.73;;
48006;SDS011;33771;48.180;11.400;2023-05-14T07:52:30;31.90;;;20.60;;
48006;SDS011;33771;48.180;11.400;2023-05-14T07:54:55;31.33;;;19.63;;
48006;SDS011;33771;48.180;11.400;2023-05-14T07:57:21;33.50;;;19.80;;
48006;SDS011;33771;48.180;11.400;2023-05-14T07:59:46;31.10;;;19.58;;
48006;SDS011;33771;48.180;11.400;2023-05-14T08:02:12;29.70;;;20.48;;
48006;SDS011;33771;48.180;11.400;2023-05-14T08:04:39;31.73;;;20.07;;
48006;SDS011;33771;48.180;11.400;2023-05-14T08:07:05;31.87;;;19.13;;
48006;SDS011;33771;48.180;11.400;2023-05-14T08:09:32;29.90;;;18.33;;
48006;SDS011;33771;48.180;11.400;2023-05-14T08:11:58;30.20;;;19.37;;
48006;SDS011;33771;48.180;11.400;2023-05-14T08:14:24;30.33;;;18.97;;
48006;SDS011;33771;48.180;11.400;2023-05-14T08:16:49;28.83;;;19.33;;
48006;SDS011;33771;48.180;11.400;2023-05-14T08:19:15;25.10;;;16.80;;
48006;SDS011;33771;48.180;11.400;2023-05-14T08:21:40;27.02;;;18.60;;
48006;SDS011;33771;48.180;11.400;2023-05-14T08:24:06;28.58;;;19.42;;
48006;SDS011;33771;48.180;11.400;2023-05-14T08:26:31;23.43;;;17.33;;
48006;SDS011;33771;48.180;11.400;2023-05-14T08:28:57;25.90;;;18.65;;
48006;SDS011;33771;48.180;11.400;2023-05-14T08:31:22;28.73;;;18.67;;
48006;SDS011;33771;48.180;11.400;2023-05-14T08:33:48;27.40;;;18.17;;
48006;SDS011;33771;48.180;11.400;2023-05-14T08:36:14;28.30;;;19.13;;
48006;SDS011;33771;48.180;11.400;2023-05-14T08:38:39;24.95;;;17.83;;
48006;SDS011;33771;48.180;11.400;2023-05-14T08:41:06;25.27;;;18.13;;
48006;SDS011;33771;48.180;11.400;2023-05-14T08:43:37;24.30;;;17.50;;
48006;SDS011;33771;48.180;11.400;2023-05-14T08:46:05;24.35;;;17.23;;
48006;SDS011;33771;48.180;11.400;2023-05-14T08:48:31;27.27;;;17.00;;
48006;SDS011;33771;48.180;11.400;2023-05-14T08:50:58;24.20;;;16.73;;
48006;SDS011;33771;48.180;11.400;2023-05-14T08:53:24;21.85;;;16.20;;
48006;SDS011;33771;48.180;11.400;2023-05-14T08:55:50;26.27;;;17.17;;
48006;SDS011;33771;48.180;11.400;2023-05-14T08:58:17;26.00;;;17.52;;
48006;SDS011;33771;48.180;11.400;2023-05-14T09:00:43;23.00;;;17.20;;
48006;SDS011;33771;48.180;11.400;2023-05-14T09:03:09;21.77;;;15.48;;
48006;SDS011;33771;48.180;11.400;2023-05-14T09:05:36;21.48;;;15.80;;
48006;SDS011;33771;48.180;11.400;2023-05-14T09:08:02;20.77;;;15.57;;
48006;SDS011;33771;48.180;11.400;2023-05-14T09:10:27;20.45;;;14.60;;
48006;SDS011;33771;48.180;11.400;2023-05-14T09:12:53;19.27;;;14.93;;
48006;SDS011;33771;48.180;11.400;2023-05-14T09:15:18;20.20;;;14.95;;
48006;SDS011;33771;48.180;11.400;2023-05-14T09:17:44;20.75;;;13.60;;
48006;SDS011;33771;48.180;11.400;2023-05-14T09:20:12;19.42;;;13.77;;
48006;SDS011;33771;48.180;11.400;2023-05-14T09:22:39;18.02;;;13.02;;
48006;SDS011;33771;48.180;11.400;2023-05-14T09:25:05;17.08;;;13.45;;
48006;SDS011;33771;48.180;11.400;2023-05-14T09:27:33;19.30;;;14.20;;
48006;SDS011;33771;48.180;11.400;2023-05-14T09:32:37;17.63;;;12.88;;
48006;SDS011;33771;48.180;11.400;2023-05-14T09:35:17;19.52;;;14.65;;
48006;SDS011;33771;48.180;11.400;2023-05-14T09:37:51;20.08;;;14.32;;
48006;SDS011;33771;48.180;11.400;2023-05-14T09:40:18;19.55;;;14.02;;
48006;SDS011;33771;48.180;11.400;2023-05-14T09:42:44;17.35;;;13.60;;
48006;SDS011;33771;48.180;11.400;2023-05-14T09:45:12;17.23;;;13.23;;
48006;SDS011;33771;48.180;11.400;2023-05-14T09:47:37;18.13;;;13.52;;
48006;SDS011;33771;48.180;11.400;2023-05-14T09:50:03;17.08;;;13.40;;
48006;SDS011;33771;48.180;11.400;2023-05-14T09:52:30;17.02;;;12.82;;
48006;SDS011;33771;48.180;11.400;2023-05-14T09:54:55;17.55;;;12.88;;
48006;SDS011;33771;48.180;11.400;2023-05-14T09:57:21;18.33;;;13.48;;
48006;SDS011;33771;48.180;11.400;2023-05-14T09:59:47;16.27;;;12.73;;
48006;SDS011;33771;48.180;11.400;2023-05-14T10:04:49;17.27;;;13.27;;
48006;SDS011;33771;48.180;11.400;2023-05-14T10:07:17;18.40;;;13.63;;
48006;SDS011;33771;48.180;11.400;2023-05-14T10:09:48;18.20;;;12.93;;
48006;SDS011;33771;48.180;11.400;2023-05-14T10:12:18;14.10;;;11.77;;
48006;SDS011;33771;48.180;11.400;2023-05-14T10:14:47;18.00;;;13.52;;
48006;SDS011;33771;48.180;11.400;2023-05-14T10:17:17;16.55;;;11.65;;
48006;SDS011;33771;48.180;11.400;2023-05-14T10:19:46;16.58;;;12.85;;
48006;SDS011;33771;48.180;11.400;2023-05-14T10:22:16;17.08;;;12.60;;
48006;SDS011;33771;48.180;11.400;2023-05-14T10:24:46;17.52;;;13.23;;
48006;SDS011;33771;48.180;11.400;2023-05-14T10:27:12;15.40;;;12.68;;
48006;SDS011;33771;48.180;11.400;2023-05-14T10:29:39;15.65;;;12.48;;
48006;SDS011;33771;48.180;11.400;2023-05-14T10:32:06;16.33;;;11.77;;
48006;SDS011;33771;48.180;11.400;2023-05-14T10:37:23;16.50;;;12.32;;
48006;SDS011;33771;48.180;11.400;2023-05-14T10:39:53;14.55;;;10.63;;
48006;SDS011;33771;48.180;11.400;2023-05-14T10:42:26;16.27;;;11.07;;
48006;SDS011;33771;48.180;11.400;2023-05-14T10:44:59;14.52;;;11.23;;
48006;SDS011;33771;48.180;11.400;2023-05-14T10:47:31;17.35;;;12.32;;
48006;SDS011;33771;48.180;11.400;2023-05-14T10:49:58;13.68;;;10.35;;
48006;SDS011;33771;48.180;11.400;2023-05-14T10:52:25;14.18;;;10.75;;
48006;SDS011;33771;48.180;11.400;2023-05-14T10:54:57;13.90;;;10.30;;
48006;SDS011;33771;48.180;11.400;2023-05-14T10:57:25;12.20;;;10.45;;
48006;SDS011;33771;48.180;11.400;2023-05-14T10:59:53;14.60;;;10.90;;
48006;SDS011;33771;48.180;11.400;2023-05-14T11:02:21;15.63;;;11.45;;
48006;SDS011;33771;48.180;11.400;2023-05-14T11:04:52;14.45;;;11.10;;
48006;SDS011;33771;48.180;11.400;2023-05-14T11:07:33;12.60;;;9.68;;
48006;SDS011;33771;48.180;11.400;2023-05-14T11:10:02;10.43;;;9.10;;
48006;SDS011;33771;48.180;11.400;2023-05-14T11:12:28;12.52;;;10.32;;
48006;SDS011;33771;48.180;11.400;2023-05-14T11:14:57;14.00;;;10.30;;
48006;SDS011;33771;48.180;11.400;2023-05-14T11:17:24;12.63;;;10.30;;
48006;SDS011;33771;48.180;11.400;2023-05-14T11:19:50;10.90;;;9.57;;
48006;SDS011;33771;48.180;11.400;2023-05-14T11:22:15;12.50;;;10.02;;
48006;SDS011;33771;48.180;11.400;2023-05-14T11:24:41;15.88;;;10.55;;
48006;SDS011;33771;48.180;11.400;2023-05-14T11:27:07;13.32;;;10.10;;
48006;SDS011;33771;48.180;11.400;2023-05-14T11:29:34;12.57;;;9.35;;
48006;SDS011;33771;48.180;11.400;2023-05-14T11:32:01;10.73;;;9.05;;
48006;SDS011;33771;48.180;11.400;2023-05-14T11:34:28;9.52;;;8.40;;
48006;SDS011;33771;48.180;11.400;2023-05-14T11:36:54;10.57;;;8.38;;
48006;SDS011;33771;48.180;11.400;2023-05-14T11:39:20;11.05;;;7.80;;
48006;SDS011;33771;48.180;11.400;2023-05-14T11:41:45;10.48;;;7.72;;
48006;SDS011;33771;48.180;11.400;2023-05-14T11:44:11;8.85;;;6.90;;
48006;SDS011;33771;48.180;11.400;2023-05-14T11:46:36;9.20;;;6.82;;
48006;SDS011;33771;48.180;11.400;2023-05-14T11:49:05;9.02;;;7.00;;
48006;SDS011;33771;48.180;11.400;2023-05-14T11:51:31;7.38;;;6.63;;
48006;SDS011;33771;48.180;11.400;2023-05-14T11:53:56;7.82;;;6.72;;
48006;SDS011;33771;48.180;11.400;2023-05-14T11:56:25;9.68;;;7.55;;
48006;SDS011;33771;48.180;11.400;2023-05-14T11:58:56;10.50;;;7.65;;
48006;SDS011;33771;48.180;11.400;2023-05-14T12:01:22;8.63;;;6.97;;
48006;SDS011;33771;48.180;11.400;2023-05-14T12:03:48;11.63;;;7.70;;
48006;SDS011;33771;48.180;11.400;2023-05-14T12:06:14;10.35;;;8.00;;
48006;SDS011;33771;48.180;11.400;2023-05-14T12:08:40;9.07;;;8.07;;
48006;SDS011;33771;48.180;11.400;2023-05-14T12:11:05;10.05;;;8.00;;
48006;SDS011;33771;48.180;11.400;2023-05-14T12:13:33;8.45;;;7.53;;
48006;SDS011;33771;48.180;11.400;2023-05-14T12:16:00;9.75;;;8.18;;
48006;SDS011;33771;48.180;11.400;2023-05-14T12:18:30;10.13;;;8.05;;
48006;SDS011;33771;48.180;11.400;2023-05-14T12:21:00;10.65;;;7.88;;
48006;SDS011;33771;48.180;11.400;2023-05-14T12:23:30;8.65;;;7.53;;
48006;SDS011;33771;48.180;11.400;2023-05-14T12:26:06;8.77;;;7.32;;
48006;SDS011;33771;48.180;11.400;2023-05-14T12:28:33;9.77;;;8.27;;
48006;SDS011;33771;48.180;11.400;2023-05-14T12:30:59;8.98;;;7.40;;
48006;SDS011;33771;48.180;11.400;2023-05-14T12:33:25;8.35;;;6.50;;
48006;SDS011;33771;48.180;11.400;2023-05-14T12:35:51;8.52;;;6.75;;
48006;SDS011;33771;48.180;11.400;2023-05-14T12:38:17;9.95;;;6.47;;
48006;SDS011;33771;48.180;11.400;2023-05-14T12:40:43;6.95;;;5.78;;
48006;SDS011;33771;48.180;11.400;2023-05-14T12:43:09;6.85;;;5.45;;
48006;SDS011;33771;48.180;11.400;2023-05-14T12:45:34;8.82;;;5.45;;
48006;SDS011;33771;48.180;11.400;2023-05-14T12:48:00;6.75;;;5.55;;
48006;SDS011;33771;48.180;11.400;2023-05-14T12:50:25;6.03;;;5.28;;
48006;SDS011;33771;48.180;11.400;2023-05-14T12:52:51;6.95;;;5.40;;
48006;SDS011;33771;48.180;11.400;2023-05-14T12:55:16;6.97;;;5.88;;
48006;SDS011;33771;48.180;11.400;2023-05-14T12:57:42;5.93;;;4.93;;
48006;SDS011;33771;48.180;11.400;2023-05-14T13:00:07;5.82;;;5.22;;
48006;SDS011;33771;48.180;11.400;2023-05-14T13:02:35;7.00;;;4.82;;
48006;SDS011;33771;48.180;11.400;2023-05-14T13:05:00;6.93;;;5.00;;
48006;SDS011;33771;48.180;11.400;2023-05-14T13:07:29;6.75;;;5.45;;
48006;SDS011;33771;48.180;11.400;2023-05-14T13:09:55;9.88;;;5.63;;
48006;SDS011;33771;48.180;11.400;2023-05-14T13:12:24;6.60;;;5.90;;
48006;SDS011;33771;48.180;11.400;2023-05-14T13:14:50;6.13;;;5.28;;
48006;SDS011;33771;48.180;11.400;2023-05-14T13:17:15;6.45;;;5.72;;
48006;SDS011;33771;48.180;11.400;2023-05-14T13:19:41;6.10;;;5.28;;
48006;SDS011;33771;48.180;11.400;2023-05-14T13:22:06;5.88;;;5.20;;
48006;SDS011;33771;48.180;11.400;2023-05-14T13:24:33;6.13;;;5.18;;
48006;SDS011;33771;48.180;11.400;2023-05-14T13:26:58;5.85;;;4.80;;
48006;SDS011;33771;48.180;11.400;2023-05-14T13:29:24;7.32;;;4.88;;
48006;SDS011;33771;48.180;11.400;2023-05-14T13:31:50;5.50;;;4.20;;
48006;SDS011;33771;48.180;11.400;2023-05-14T13:34:17;6.97;;;4.55;;
48006;SDS011;33771;48.180;11.400;2023-05-14T13:36:42;6.07;;;3.80;;
48006;SDS011;33771;48.180;11.400;2023-05-14T13:39:11;6.00;;;4.80;;
48006;SDS011;33771;48.180;11.400;2023-05-14T13:41:36;7.30;;;4.72;;
48006;SDS011;33771;48.180;11.400;2023-05-14T13:44:02;5.65;;;4.50;;
48006;SDS011;33771;48.180;11.400;2023-05-14T13:46:28;6.10;;;4.40;;
48006;SDS011;33771;48.180;11.400;2023-05-14T13:48:54;6.53;;;4.68;;
48006;SDS011;33771;48.180;11.400;2023-05-14T13:51:19;6.10;;;4.18;;
48006;SDS011;33771;48.180;11.400;2023-05-14T13:53:46;4.85;;;4.05;;
48006;SDS011;33771;48.180;11.400;2023-05-14T13:56:11;6.45;;;4.15;;
48006;SDS011;33771;48.180;11.400;2023-05-14T13:58:37;4.88;;;3.42;;
48006;SDS011;33771;48.180;11.400;2023-05-14T14:01:02;4.45;;;3.63;;
48006;SDS011;33771;48.180;11.400;2023-05-14T14:03:28;3.80;;;3.22;;
48006;SDS011;33771;48.180;11.400;2023-05-14T14:05:53;4.95;;;3.72;;
48006;SDS011;33771;48.180;11.400;2023-05-14T14:08:19;7.47;;;4.00;;
48006;SDS011;33771;48.180;11.400;2023-05-14T14:10:45;5.22;;;3.97;;
48006;SDS011;33771;48.180;11.400;2023-05-14T14:13:10;6.07;;;4.18;;
48006;SDS011;33771;48.180;11.400;2023-05-14T14:15:36;5.40;;;4.30;;
48006;SDS011;33771;48.180;11.400;2023-05-14T14:18:01;5.55;;;4.15;;
48006;SDS011;33771;48.180;11.400;2023-05-14T14:20:27;3.85;;;3.25;;
48006;SDS011;33771;48.180;11.400;2023-05-14T14:22:53;3.88;;;3.47;;